RYR81EN EIKN-EGGW
Flight info
| Callsign | RYR81EN |
|---|---|
| Flight time | 1h 7m |
| Altitude | 33000 |
| Route | CON DCT OLAPO DCT BOFUM Q37 MALUD Q38 VOLFI Z197 LISTO |
| Aircraft | B738/M-SDE2E3FGHIRWXY/LB1 |
Departure
| Time | 2026-04-25 12:43 |
|---|---|
| Airport | Ireland West Airport Knock (EIKN) |
Arrival
| Time | 2026-04-25 13:50 |
|---|---|
| Airport | London Luton Airport (EGGW) |
| Time | Latitude | Longitude | Altitude | Speed | Heading |
|---|---|---|---|---|---|
| 2026-04-25 11:57 | 53.91343 | -8.81015 | 652 ft | 0 kts | 259° |
| 2026-04-25 12:31 | 53.91343 | -8.81016 | 652 ft | 0 kts | 259° |
| 2026-04-25 12:31 | 53.91347 | -8.81024 | 653 ft | 1 kts | 317° |
| 2026-04-25 12:31 | 53.91357 | -8.81013 | 654 ft | 2 kts | 46° |
| 2026-04-25 12:31 | 53.91359 | -8.80970 | 654 ft | 5 kts | 100° |
| 2026-04-25 12:32 | 53.91331 | -8.80920 | 654 ft | 7 kts | 159° |
| 2026-04-25 12:32 | 53.91288 | -8.80903 | 654 ft | 3 kts | 168° |
| 2026-04-25 12:32 | 53.91288 | -8.80902 | 654 ft | 0 kts | 168° |
| 2026-04-25 12:38 | 53.91278 | -8.80899 | 654 ft | 5 kts | 168° |
| 2026-04-25 12:38 | 53.91231 | -8.80883 | 655 ft | 9 kts | 168° |
| 2026-04-25 12:38 | 53.91163 | -8.80870 | 656 ft | 11 kts | 198° |
| 2026-04-25 12:39 | 53.91128 | -8.81027 | 653 ft | 19 kts | 259° |
| 2026-04-25 12:39 | 53.91098 | -8.81290 | 643 ft | 27 kts | 259° |
| 2026-04-25 12:39 | 53.91060 | -8.81611 | 636 ft | 27 kts | 259° |
| 2026-04-25 12:39 | 53.91024 | -8.81916 | 629 ft | 25 kts | 258° |
| 2026-04-25 12:40 | 53.90990 | -8.82201 | 625 ft | 24 kts | 258° |
| 2026-04-25 12:40 | 53.90960 | -8.82466 | 620 ft | 23 kts | 258° |
| 2026-04-25 12:40 | 53.90929 | -8.82723 | 617 ft | 22 kts | 258° |
| 2026-04-25 12:40 | 53.90899 | -8.82976 | 613 ft | 22 kts | 259° |
| 2026-04-25 12:41 | 53.90868 | -8.83238 | 601 ft | 23 kts | 259° |
| 2026-04-25 12:41 | 53.90844 | -8.83441 | 597 ft | 11 kts | 258° |
| 2026-04-25 12:41 | 53.90813 | -8.83552 | 595 ft | 10 kts | 253° |
| 2026-04-25 12:41 | 53.90826 | -8.83581 | 594 ft | 2 kts | 33° |
| 2026-04-25 12:42 | 53.90834 | -8.83532 | 595 ft | 8 kts | 79° |
| 2026-04-25 12:42 | 53.90853 | -8.83369 | 598 ft | 44 kts | 79° |
| 2026-04-25 12:42 | 53.91026 | -8.81909 | 632 ft | 140 kts | 79° |
| 2026-04-25 12:42 | 53.91256 | -8.79999 | 919 ft | 177 kts | 81° |
| 2026-04-25 12:43 | 53.91500 | -8.77949 | 1729 ft | 180 kts | 81° |
| 2026-04-25 12:43 | 53.91778 | -8.75760 | 2387 ft | 200 kts | 81° |
| 2026-04-25 12:43 | 53.92361 | -8.70652 | 3181 ft | 246 kts | 81° |
| 2026-04-25 12:44 | 53.92700 | -8.67667 | 3712 ft | 264 kts | 81° |
| 2026-04-25 12:44 | 53.93055 | -8.64592 | 4673 ft | 266 kts | 81° |
| 2026-04-25 12:44 | 53.93783 | -8.58338 | 6434 ft | 277 kts | 82° |
| 2026-04-25 12:45 | 53.94162 | -8.55119 | 7269 ft | 281 kts | 81° |
| 2026-04-25 12:45 | 53.94548 | -8.51849 | 8161 ft | 284 kts | 81° |
| 2026-04-25 12:45 | 53.95334 | -8.45159 | 9477 ft | 293 kts | 82° |
| 2026-04-25 12:46 | 53.95733 | -8.41747 | 10336 ft | 295 kts | 81° |
| 2026-04-25 12:46 | 53.96137 | -8.38278 | 10766 ft | 314 kts | 81° |
| 2026-04-25 12:46 | 53.96576 | -8.34484 | 11039 ft | 336 kts | 81° |
| 2026-04-25 12:46 | 53.97036 | -8.30535 | 11697 ft | 344 kts | 81° |
| 2026-04-25 12:47 | 53.97502 | -8.26525 | 12500 ft | 347 kts | 81° |
| 2026-04-25 12:47 | 53.97968 | -8.22483 | 13307 ft | 350 kts | 82° |
| 2026-04-25 12:47 | 53.98301 | -8.18368 | 14046 ft | 353 kts | 92° |
| 2026-04-25 12:47 | 53.98031 | -8.14290 | 14700 ft | 352 kts | 108° |
| 2026-04-25 12:48 | 53.97200 | -8.10373 | 15382 ft | 353 kts | 115° |
| 2026-04-25 12:48 | 53.96258 | -8.06459 | 15952 ft | 361 kts | 115° |
| 2026-04-25 12:48 | 53.95305 | -8.02482 | 16627 ft | 365 kts | 115° |
| 2026-04-25 12:48 | 53.94349 | -7.98456 | 17342 ft | 369 kts | 115° |
| 2026-04-25 12:49 | 53.93393 | -7.94402 | 18008 ft | 373 kts | 115° |
| 2026-04-25 12:49 | 53.92426 | -7.90284 | 18619 ft | 378 kts | 115° |
| 2026-04-25 12:49 | 53.91459 | -7.86163 | 19171 ft | 381 kts | 115° |
| 2026-04-25 12:49 | 53.90474 | -7.81960 | 19757 ft | 385 kts | 115° |
| 2026-04-25 12:50 | 53.89478 | -7.77711 | 20319 ft | 389 kts | 114° |
| 2026-04-25 12:50 | 53.88474 | -7.73439 | 20877 ft | 393 kts | 114° |
| 2026-04-25 12:50 | 53.87453 | -7.69102 | 21430 ft | 397 kts | 114° |
| 2026-04-25 12:50 | 53.86423 | -7.64737 | 21971 ft | 401 kts | 114° |
| 2026-04-25 12:51 | 53.85379 | -7.60321 | 22497 ft | 405 kts | 115° |
| 2026-04-25 12:51 | 53.84324 | -7.55867 | 23013 ft | 409 kts | 115° |
| 2026-04-25 12:51 | 53.83256 | -7.51369 | 23543 ft | 413 kts | 114° |
| 2026-04-25 12:51 | 53.82182 | -7.46849 | 24000 ft | 416 kts | 114° |
| 2026-04-25 12:52 | 53.81094 | -7.42283 | 24443 ft | 419 kts | 114° |
| 2026-04-25 12:52 | 53.80000 | -7.37695 | 24897 ft | 421 kts | 115° |
| 2026-04-25 12:52 | 53.78891 | -7.33066 | 25333 ft | 424 kts | 115° |
| 2026-04-25 12:52 | 53.77850 | -7.28438 | 25698 ft | 430 kts | 109° |
| 2026-04-25 12:53 | 53.77115 | -7.23504 | 26072 ft | 434 kts | 104° |
| 2026-04-25 12:53 | 53.76485 | -7.18480 | 26514 ft | 436 kts | 103° |
| 2026-04-25 12:53 | 53.75878 | -7.13447 | 26920 ft | 439 kts | 103° |
| 2026-04-25 12:53 | 53.75264 | -7.08375 | 27319 ft | 442 kts | 103° |
| 2026-04-25 12:54 | 53.74635 | -7.03287 | 27706 ft | 444 kts | 104° |
| 2026-04-25 12:54 | 53.73987 | -6.98166 | 28082 ft | 447 kts | 104° |
| 2026-04-25 12:54 | 53.73330 | -6.93060 | 28446 ft | 450 kts | 104° |
| 2026-04-25 12:54 | 53.72656 | -6.87879 | 28899 ft | 450 kts | 104° |
| 2026-04-25 12:55 | 53.71981 | -6.82730 | 29453 ft | 448 kts | 104° |
| 2026-04-25 12:55 | 53.71535 | -6.79342 | 29828 ft | 447 kts | 104° |
| 2026-04-25 12:55 | 53.70630 | -6.72494 | 30494 ft | 444 kts | 104° |
| 2026-04-25 12:55 | 53.69961 | -6.67456 | 30915 ft | 443 kts | 104° |
| 2026-04-25 12:56 | 53.69285 | -6.62383 | 31317 ft | 443 kts | 104° |
| 2026-04-25 12:56 | 53.68607 | -6.57306 | 31716 ft | 442 kts | 104° |
| 2026-04-25 12:56 | 53.67927 | -6.52237 | 32131 ft | 440 kts | 104° |
| 2026-04-25 12:56 | 53.67259 | -6.47270 | 32539 ft | 439 kts | 104° |
| 2026-04-25 12:57 | 53.66581 | -6.42248 | 32940 ft | 439 kts | 104° |
| 2026-04-25 12:57 | 53.65900 | -6.37217 | 33225 ft | 440 kts | 104° |
| 2026-04-25 12:57 | 53.64514 | -6.27044 | 33198 ft | 444 kts | 104° |
| 2026-04-25 12:58 | 53.63152 | -6.17088 | 33203 ft | 434 kts | 104° |
| 2026-04-25 12:58 | 53.61777 | -6.07125 | 33217 ft | 436 kts | 105° |
| 2026-04-25 12:59 | 53.60394 | -5.97173 | 33209 ft | 437 kts | 105° |
| 2026-04-25 12:59 | 53.58997 | -5.87177 | 33196 ft | 438 kts | 105° |
| 2026-04-25 13:00 | 53.58068 | -5.80545 | 33206 ft | 439 kts | 105° |
| 2026-04-25 13:00 | 53.56177 | -5.67192 | 33214 ft | 440 kts | 105° |
| 2026-04-25 13:01 | 53.54757 | -5.57218 | 33212 ft | 441 kts | 105° |
| 2026-04-25 13:01 | 53.53555 | -5.47094 | 33195 ft | 443 kts | 95° |
| 2026-04-25 13:02 | 53.53343 | -5.36739 | 33202 ft | 443 kts | 92° |
| 2026-04-25 13:02 | 53.53144 | -5.26398 | 33211 ft | 442 kts | 93° |
| 2026-04-25 13:03 | 53.52880 | -5.16069 | 33207 ft | 441 kts | 94° |
| 2026-04-25 13:03 | 53.52568 | -5.05839 | 33209 ft | 439 kts | 94° |
| 2026-04-25 13:04 | 53.52234 | -4.95574 | 33203 ft | 437 kts | 94° |
| 2026-04-25 13:04 | 53.51904 | -4.85452 | 33207 ft | 436 kts | 94° |
| 2026-04-25 13:05 | 53.51565 | -4.75282 | 33208 ft | 435 kts | 94° |
| 2026-04-25 13:05 | 53.51219 | -4.65125 | 33201 ft | 435 kts | 94° |
| 2026-04-25 13:06 | 53.50868 | -4.55045 | 33212 ft | 434 kts | 94° |
| 2026-04-25 13:06 | 53.50508 | -4.44934 | 33209 ft | 434 kts | 94° |
| 2026-04-25 13:07 | 53.50137 | -4.34788 | 33209 ft | 434 kts | 95° |
| 2026-04-25 13:07 | 53.49761 | -4.24719 | 33213 ft | 434 kts | 95° |
| 2026-04-25 13:08 | 53.48701 | -4.14795 | 33227 ft | 431 kts | 107° |
| 2026-04-25 13:08 | 53.46985 | -4.05125 | 33208 ft | 431 kts | 108° |
| 2026-04-25 13:09 | 53.45278 | -3.95531 | 33216 ft | 432 kts | 108° |
| 2026-04-25 13:09 | 53.43598 | -3.85843 | 33217 ft | 432 kts | 108° |
| 2026-04-25 13:10 | 53.41933 | -3.76160 | 33215 ft | 432 kts | 108° |
| 2026-04-25 13:10 | 53.40273 | -3.66532 | 33215 ft | 432 kts | 108° |
| 2026-04-25 13:11 | 53.38593 | -3.56841 | 33211 ft | 432 kts | 108° |
| 2026-04-25 13:11 | 53.37185 | -3.48772 | 33219 ft | 432 kts | 108° |
| 2026-04-25 13:12 | 53.35493 | -3.39117 | 33208 ft | 432 kts | 108° |
| 2026-04-25 13:12 | 53.34078 | -3.31088 | 33205 ft | 432 kts | 108° |
| 2026-04-25 13:13 | 53.32088 | -3.19855 | 33199 ft | 432 kts | 108° |
| 2026-04-25 13:13 | 53.30370 | -3.10209 | 33190 ft | 431 kts | 108° |
| 2026-04-25 13:14 | 53.28658 | -3.00647 | 33207 ft | 431 kts | 108° |
| 2026-04-25 13:14 | 53.26940 | -2.91090 | 33211 ft | 431 kts | 108° |
| 2026-04-25 13:15 | 53.25205 | -2.81497 | 33210 ft | 431 kts | 108° |
| 2026-04-25 13:15 | 53.23518 | -2.71887 | 33204 ft | 431 kts | 107° |
| 2026-04-25 13:16 | 53.21854 | -2.62316 | 33206 ft | 430 kts | 108° |
| 2026-04-25 13:16 | 53.20170 | -2.52711 | 33198 ft | 430 kts | 108° |
| 2026-04-25 13:17 | 53.18485 | -2.43183 | 33207 ft | 430 kts | 108° |
| 2026-04-25 13:17 | 53.16782 | -2.33602 | 33200 ft | 430 kts | 108° |
| 2026-04-25 13:18 | 53.15065 | -2.24063 | 32998 ft | 425 kts | 111° |
| 2026-04-25 13:18 | 53.13697 | -2.19773 | 32691 ft | 413 kts | 130° |
| 2026-04-25 13:18 | 53.11691 | -2.16450 | 32441 ft | 403 kts | 145° |
| 2026-04-25 13:19 | 53.09462 | -2.13706 | 32208 ft | 400 kts | 146° |
| 2026-04-25 13:19 | 53.07203 | -2.11023 | 31945 ft | 399 kts | 147° |
| 2026-04-25 13:19 | 53.04937 | -2.08345 | 31697 ft | 398 kts | 147° |
| 2026-04-25 13:19 | 53.03440 | -2.06568 | 31529 ft | 397 kts | 146° |
| 2026-04-25 13:20 | 53.00438 | -2.02977 | 31190 ft | 396 kts | 146° |
| 2026-04-25 13:20 | 52.98204 | -2.00286 | 30929 ft | 395 kts | 146° |
| 2026-04-25 13:20 | 52.96011 | -1.97637 | 30688 ft | 395 kts | 146° |
| 2026-04-25 13:20 | 52.93785 | -1.94946 | 30453 ft | 394 kts | 146° |
| 2026-04-25 13:21 | 52.91588 | -1.92290 | 30173 ft | 389 kts | 146° |
| 2026-04-25 13:21 | 52.89403 | -1.89653 | 29803 ft | 385 kts | 146° |
| 2026-04-25 13:21 | 52.87265 | -1.87075 | 29448 ft | 381 kts | 146° |
| 2026-04-25 13:21 | 52.85134 | -1.84511 | 29094 ft | 377 kts | 146° |
| 2026-04-25 13:22 | 52.83018 | -1.81967 | 28737 ft | 373 kts | 146° |
| 2026-04-25 13:22 | 52.80927 | -1.79456 | 28391 ft | 370 kts | 146° |
| 2026-04-25 13:22 | 52.78849 | -1.76964 | 28024 ft | 367 kts | 146° |
| 2026-04-25 13:23 | 52.74767 | -1.72085 | 27341 ft | 361 kts | 147° |
| 2026-04-25 13:23 | 52.72642 | -1.69915 | 27048 ft | 355 kts | 154° |
| 2026-04-25 13:23 | 52.70461 | -1.68029 | 26687 ft | 352 kts | 156° |
| 2026-04-25 13:23 | 52.68278 | -1.66230 | 26357 ft | 350 kts | 156° |
| 2026-04-25 13:24 | 52.66132 | -1.64466 | 26016 ft | 348 kts | 156° |
| 2026-04-25 13:24 | 52.63976 | -1.62674 | 25685 ft | 346 kts | 155° |
| 2026-04-25 13:24 | 52.61830 | -1.60871 | 25347 ft | 344 kts | 155° |
| 2026-04-25 13:24 | 52.59706 | -1.59072 | 25017 ft | 342 kts | 155° |
| 2026-04-25 13:25 | 52.57589 | -1.57270 | 24687 ft | 341 kts | 155° |
| 2026-04-25 13:25 | 52.55512 | -1.55498 | 24362 ft | 339 kts | 155° |
| 2026-04-25 13:25 | 52.53426 | -1.53718 | 24038 ft | 338 kts | 155° |
| 2026-04-25 13:25 | 52.51338 | -1.51936 | 23699 ft | 337 kts | 155° |
| 2026-04-25 13:26 | 52.49263 | -1.50166 | 23334 ft | 335 kts | 155° |
| 2026-04-25 13:26 | 52.47199 | -1.48408 | 22994 ft | 333 kts | 155° |
| 2026-04-25 13:26 | 52.45153 | -1.46666 | 22664 ft | 330 kts | 155° |
| 2026-04-25 13:26 | 52.43116 | -1.44934 | 22336 ft | 327 kts | 155° |
| 2026-04-25 13:27 | 52.41107 | -1.43228 | 22008 ft | 325 kts | 155° |
| 2026-04-25 13:27 | 52.39122 | -1.41544 | 21689 ft | 323 kts | 155° |
| 2026-04-25 13:27 | 52.37128 | -1.39854 | 21365 ft | 321 kts | 155° |
| 2026-04-25 13:27 | 52.35142 | -1.38172 | 21054 ft | 319 kts | 155° |
| 2026-04-25 13:28 | 52.33170 | -1.36503 | 20731 ft | 318 kts | 155° |
| 2026-04-25 13:28 | 52.31871 | -1.35405 | 20524 ft | 317 kts | 155° |
| 2026-04-25 13:28 | 52.29277 | -1.33212 | 20108 ft | 315 kts | 154° |
| 2026-04-25 13:28 | 52.27351 | -1.31456 | 19789 ft | 318 kts | 152° |
| 2026-04-25 13:29 | 52.25413 | -1.29614 | 19485 ft | 326 kts | 152° |
| 2026-04-25 13:29 | 52.23426 | -1.27715 | 19158 ft | 333 kts | 152° |
| 2026-04-25 13:29 | 52.21434 | -1.25816 | 18825 ft | 336 kts | 152° |
| 2026-04-25 13:30 | 52.17373 | -1.21971 | 18087 ft | 337 kts | 152° |
| 2026-04-25 13:30 | 52.15341 | -1.20057 | 17723 ft | 334 kts | 152° |
| 2026-04-25 13:30 | 52.13329 | -1.18166 | 17377 ft | 332 kts | 152° |
| 2026-04-25 13:31 | 52.09379 | -1.14461 | 16715 ft | 327 kts | 152° |
| 2026-04-25 13:31 | 52.07405 | -1.12614 | 16388 ft | 325 kts | 152° |
| 2026-04-25 13:31 | 52.05447 | -1.10784 | 16070 ft | 323 kts | 152° |
| 2026-04-25 13:31 | 52.03501 | -1.08968 | 15738 ft | 321 kts | 152° |
| 2026-04-25 13:32 | 52.01649 | -1.06978 | 15430 ft | 321 kts | 137° |
| 2026-04-25 13:32 | 52.00420 | -1.04031 | 15138 ft | 319 kts | 110° |
| 2026-04-25 13:32 | 51.99989 | -1.00542 | 14944 ft | 313 kts | 89° |
| 2026-04-25 13:32 | 52.00174 | -0.97044 | 14775 ft | 309 kts | 83° |
| 2026-04-25 13:33 | 52.00443 | -0.93621 | 14562 ft | 309 kts | 82° |
| 2026-04-25 13:33 | 52.00722 | -0.90158 | 14369 ft | 308 kts | 82° |
| 2026-04-25 13:33 | 52.00989 | -0.86711 | 14163 ft | 308 kts | 82° |
| 2026-04-25 13:33 | 52.01161 | -0.84407 | 14037 ft | 308 kts | 83° |
| 2026-04-25 13:34 | 52.01493 | -0.79815 | 13745 ft | 307 kts | 83° |
| 2026-04-25 13:34 | 52.01739 | -0.76366 | 13540 ft | 306 kts | 82° |
| 2026-04-25 13:34 | 52.02329 | -0.73084 | 13309 ft | 303 kts | 58° |
| 2026-04-25 13:34 | 52.03605 | -0.70402 | 13172 ft | 299 kts | 45° |
| 2026-04-25 13:35 | 52.05054 | -0.67987 | 12973 ft | 298 kts | 43° |
| 2026-04-25 13:35 | 52.06522 | -0.65619 | 12780 ft | 298 kts | 43° |
| 2026-04-25 13:35 | 52.07992 | -0.63242 | 12592 ft | 297 kts | 44° |
| 2026-04-25 13:35 | 52.09437 | -0.60886 | 12402 ft | 297 kts | 44° |
| 2026-04-25 13:36 | 52.10882 | -0.58510 | 12162 ft | 294 kts | 44° |
| 2026-04-25 13:36 | 52.12310 | -0.56147 | 11781 ft | 291 kts | 44° |
| 2026-04-25 13:36 | 52.13727 | -0.53795 | 11277 ft | 290 kts | 44° |
| 2026-04-25 13:36 | 52.15136 | -0.51452 | 10800 ft | 288 kts | 44° |
| 2026-04-25 13:37 | 52.16533 | -0.49124 | 10375 ft | 286 kts | 44° |
| 2026-04-25 13:37 | 52.17914 | -0.46820 | 10018 ft | 280 kts | 44° |
| 2026-04-25 13:37 | 52.19229 | -0.44621 | 9810 ft | 269 kts | 44° |
| 2026-04-25 13:37 | 52.20511 | -0.42476 | 9618 ft | 257 kts | 44° |
| 2026-04-25 13:38 | 52.21605 | -0.40219 | 9278 ft | 254 kts | 65° |
| 2026-04-25 13:38 | 52.21936 | -0.37428 | 8868 ft | 254 kts | 95° |
| 2026-04-25 13:38 | 52.21500 | -0.34643 | 8481 ft | 253 kts | 109° |
| 2026-04-25 13:38 | 52.20888 | -0.31946 | 8087 ft | 252 kts | 110° |
| 2026-04-25 13:39 | 52.20273 | -0.29314 | 7711 ft | 252 kts | 110° |
| 2026-04-25 13:39 | 52.19643 | -0.26634 | 7457 ft | 251 kts | 111° |
| 2026-04-25 13:39 | 52.18782 | -0.24196 | 7263 ft | 249 kts | 136° |
| 2026-04-25 13:39 | 52.17295 | -0.22788 | 7215 ft | 251 kts | 167° |
| 2026-04-25 13:40 | 52.15563 | -0.22503 | 7211 ft | 249 kts | 179° |
| 2026-04-25 13:40 | 52.13855 | -0.22460 | 7091 ft | 252 kts | 180° |
| 2026-04-25 13:40 | 52.12090 | -0.22486 | 6807 ft | 254 kts | 187° |
| 2026-04-25 13:40 | 52.10454 | -0.23455 | 6520 ft | 251 kts | 218° |
| 2026-04-25 13:41 | 52.09325 | -0.25584 | 6255 ft | 248 kts | 240° |
| 2026-04-25 13:41 | 52.08493 | -0.28055 | 5952 ft | 249 kts | 243° |
| 2026-04-25 13:41 | 52.07699 | -0.30546 | 5644 ft | 250 kts | 243° |
| 2026-04-25 13:41 | 52.06897 | -0.33081 | 5350 ft | 250 kts | 244° |
| 2026-04-25 13:42 | 52.06111 | -0.35572 | 5054 ft | 251 kts | 244° |
| 2026-04-25 13:42 | 52.05314 | -0.38106 | 4736 ft | 252 kts | 244° |
| 2026-04-25 13:42 | 52.04517 | -0.40653 | 4409 ft | 251 kts | 244° |
| 2026-04-25 13:42 | 52.03737 | -0.43147 | 4120 ft | 245 kts | 244° |
| 2026-04-25 13:43 | 52.02975 | -0.45586 | 3817 ft | 240 kts | 243° |
| 2026-04-25 13:43 | 52.02236 | -0.47951 | 3641 ft | 229 kts | 243° |
| 2026-04-25 13:43 | 52.01527 | -0.50225 | 3484 ft | 225 kts | 244° |
| 2026-04-25 13:43 | 52.00821 | -0.52496 | 3330 ft | 225 kts | 244° |
| 2026-04-25 13:44 | 52.00026 | -0.54656 | 3170 ft | 227 kts | 226° |
| 2026-04-25 13:44 | 51.98780 | -0.56173 | 3027 ft | 220 kts | 212° |
| 2026-04-25 13:44 | 51.97494 | -0.57436 | 2888 ft | 209 kts | 211° |
| 2026-04-25 13:44 | 51.96269 | -0.58610 | 2775 ft | 199 kts | 211° |
| 2026-04-25 13:45 | 51.95059 | -0.59486 | 2677 ft | 190 kts | 187° |
| 2026-04-25 13:45 | 51.93776 | -0.59200 | 2592 ft | 186 kts | 162° |
| 2026-04-25 13:45 | 51.92541 | -0.58526 | 2495 ft | 189 kts | 161° |
| 2026-04-25 13:45 | 51.91300 | -0.57824 | 2432 ft | 189 kts | 161° |
| 2026-04-25 13:46 | 51.90062 | -0.57118 | 2356 ft | 189 kts | 161° |
| 2026-04-25 13:46 | 51.88827 | -0.56412 | 2284 ft | 187 kts | 161° |
| 2026-04-25 13:46 | 51.87601 | -0.55710 | 2228 ft | 187 kts | 161° |
| 2026-04-25 13:46 | 51.86370 | -0.55005 | 2166 ft | 188 kts | 160° |
| 2026-04-25 13:47 | 51.85151 | -0.54278 | 2045 ft | 191 kts | 154° |
| 2026-04-25 13:47 | 51.84232 | -0.52812 | 1983 ft | 185 kts | 112° |
| 2026-04-25 13:47 | 51.83904 | -0.50823 | 1984 ft | 184 kts | 98° |
| 2026-04-25 13:47 | 51.84064 | -0.48795 | 1970 ft | 185 kts | 60° |
| 2026-04-25 13:48 | 51.84965 | -0.47349 | 1978 ft | 180 kts | 33° |
| 2026-04-25 13:48 | 51.85852 | -0.46082 | 1762 ft | 172 kts | 58° |
| 2026-04-25 13:48 | 51.86238 | -0.44237 | 1335 ft | 172 kts | 79° |
| 2026-04-25 13:48 | 51.86509 | -0.42409 | 1046 ft | 165 kts | 74° |
| 2026-04-25 13:49 | 51.86845 | -0.40646 | 780 ft | 159 kts | 75° |
| 2026-04-25 13:49 | 51.87112 | -0.38925 | 664 ft | 156 kts | 77° |
| 2026-04-25 13:49 | 51.87389 | -0.37265 | 520 ft | 136 kts | 73° |
| 2026-04-25 13:49 | 51.87586 | -0.36133 | 516 ft | 73 kts | 74° |
| 2026-04-25 13:50 | 51.87688 | -0.35555 | 514 ft | 21 kts | 72° |